sensor_id;sensor_type;location;lat;lon;timestamp;P1;durP1;ratioP1;P2;durP2;ratioP2
48550;SDS011;34397;51.176;6.738;2023-04-25T00:00:07;12.88;;;3.00;;
48550;SDS011;34397;51.176;6.738;2023-04-25T00:02:40;13.02;;;3.38;;
48550;SDS011;34397;51.176;6.738;2023-04-25T00:05:12;10.55;;;2.88;;
48550;SDS011;34397;51.176;6.738;2023-04-25T00:07:46;9.75;;;3.28;;
48550;SDS011;34397;51.176;6.738;2023-04-25T00:10:19;9.63;;;3.13;;
48550;SDS011;34397;51.176;6.738;2023-04-25T00:12:51;10.77;;;3.40;;
48550;SDS011;34397;51.176;6.738;2023-04-25T00:15:23;7.75;;;2.80;;
48550;SDS011;34397;51.176;6.738;2023-04-25T00:17:56;13.55;;;3.40;;
48550;SDS011;34397;51.176;6.738;2023-04-25T00:20:28;13.93;;;3.50;;
48550;SDS011;34397;51.176;6.738;2023-04-25T00:23:00;7.75;;;3.28;;
48550;SDS011;34397;51.176;6.738;2023-04-25T00:25:34;10.55;;;2.92;;
48550;SDS011;34397;51.176;6.738;2023-04-25T00:28:05;11.45;;;3.17;;
48550;SDS011;34397;51.176;6.738;2023-04-25T00:30:37;12.15;;;3.65;;
48550;SDS011;34397;51.176;6.738;2023-04-25T00:33:09;9.75;;;3.28;;
48550;SDS011;34397;51.176;6.738;2023-04-25T00:35:41;10.00;;;3.13;;
48550;SDS011;34397;51.176;6.738;2023-04-25T00:38:31;10.65;;;3.10;;
48550;SDS011;34397;51.176;6.738;2023-04-25T00:41:07;9.95;;;3.00;;
48550;SDS011;34397;51.176;6.738;2023-04-25T00:43:39;11.77;;;2.70;;
48550;SDS011;34397;51.176;6.738;2023-04-25T00:46:11;10.15;;;3.25;;
48550;SDS011;34397;51.176;6.738;2023-04-25T00:48:45;8.05;;;2.72;;
48550;SDS011;34397;51.176;6.738;2023-04-25T00:51:25;12.38;;;2.97;;
48550;SDS011;34397;51.176;6.738;2023-04-25T00:54:04;11.32;;;3.33;;
48550;SDS011;34397;51.176;6.738;2023-04-25T00:56:38;11.10;;;3.13;;
48550;SDS011;34397;51.176;6.738;2023-04-25T00:59:10;12.50;;;3.70;;
48550;SDS011;34397;51.176;6.738;2023-04-25T01:01:42;11.95;;;2.88;;
48550;SDS011;34397;51.176;6.738;2023-04-25T01:04:15;11.80;;;3.38;;
48550;SDS011;34397;51.176;6.738;2023-04-25T01:06:47;10.82;;;3.10;;
48550;SDS011;34397;51.176;6.738;2023-04-25T01:09:19;11.77;;;3.50;;
48550;SDS011;34397;51.176;6.738;2023-04-25T01:11:53;9.15;;;3.22;;
48550;SDS011;34397;51.176;6.738;2023-04-25T01:14:27;10.75;;;2.88;;
48550;SDS011;34397;51.176;6.738;2023-04-25T01:17:02;12.18;;;3.22;;
48550;SDS011;34397;51.176;6.738;2023-04-25T01:19:34;9.18;;;3.03;;
48550;SDS011;34397;51.176;6.738;2023-04-25T01:22:07;11.15;;;3.22;;
48550;SDS011;34397;51.176;6.738;2023-04-25T01:24:40;12.32;;;3.22;;
48550;SDS011;34397;51.176;6.738;2023-04-25T01:27:13;10.38;;;3.10;;
48550;SDS011;34397;51.176;6.738;2023-04-25T01:29:45;13.52;;;3.00;;
48550;SDS011;34397;51.176;6.738;2023-04-25T01:32:17;8.25;;;3.00;;
48550;SDS011;34397;51.176;6.738;2023-04-25T01:34:50;9.10;;;3.00;;
48550;SDS011;34397;51.176;6.738;2023-04-25T01:37:23;7.45;;;2.72;;
48550;SDS011;34397;51.176;6.738;2023-04-25T01:39:55;7.55;;;2.70;;
48550;SDS011;34397;51.176;6.738;2023-04-25T01:42:27;10.57;;;3.05;;
48550;SDS011;34397;51.176;6.738;2023-04-25T01:44:59;14.68;;;3.45;;
48550;SDS011;34397;51.176;6.738;2023-04-25T01:47:31;9.00;;;2.95;;
48550;SDS011;34397;51.176;6.738;2023-04-25T01:50:21;9.02;;;2.90;;
48550;SDS011;34397;51.176;6.738;2023-04-25T01:53:03;9.63;;;2.92;;
48550;SDS011;34397;51.176;6.738;2023-04-25T01:55:40;9.23;;;2.55;;
48550;SDS011;34397;51.176;6.738;2023-04-25T01:58:12;12.27;;;2.90;;
48550;SDS011;34397;51.176;6.738;2023-04-25T02:00:51;13.35;;;2.95;;
48550;SDS011;34397;51.176;6.738;2023-04-25T02:03:22;8.50;;;3.05;;
48550;SDS011;34397;51.176;6.738;2023-04-25T02:05:54;10.73;;;3.30;;
48550;SDS011;34397;51.176;6.738;2023-04-25T02:08:27;8.93;;;2.60;;
48550;SDS011;34397;51.176;6.738;2023-04-25T02:11:00;7.75;;;3.20;;
48550;SDS011;34397;51.176;6.738;2023-04-25T02:13:33;9.73;;;3.17;;
48550;SDS011;34397;51.176;6.738;2023-04-25T02:16:05;9.88;;;2.55;;
48550;SDS011;34397;51.176;6.738;2023-04-25T02:18:37;9.95;;;2.67;;
48550;SDS011;34397;51.176;6.738;2023-04-25T02:21:09;9.98;;;2.50;;
48550;SDS011;34397;51.176;6.738;2023-04-25T02:23:42;8.70;;;2.58;;
48550;SDS011;34397;51.176;6.738;2023-04-25T02:26:16;6.55;;;2.33;;
48550;SDS011;34397;51.176;6.738;2023-04-25T02:28:47;4.03;;;2.17;;
48550;SDS011;34397;51.176;6.738;2023-04-25T02:31:20;5.00;;;2.20;;
48550;SDS011;34397;51.176;6.738;2023-04-25T02:33:52;5.65;;;2.45;;
48550;SDS011;34397;51.176;6.738;2023-04-25T02:36:23;7.68;;;2.03;;
48550;SDS011;34397;51.176;6.738;2023-04-25T02:38:57;5.53;;;2.65;;
48550;SDS011;34397;51.176;6.738;2023-04-25T02:41:30;5.88;;;2.58;;
48550;SDS011;34397;51.176;6.738;2023-04-25T02:44:02;11.30;;;2.00;;
48550;SDS011;34397;51.176;6.738;2023-04-25T02:46:37;5.30;;;2.13;;
48550;SDS011;34397;51.176;6.738;2023-04-25T02:49:28;4.78;;;1.92;;
48550;SDS011;34397;51.176;6.738;2023-04-25T02:52:00;5.07;;;1.85;;
48550;SDS011;34397;51.176;6.738;2023-04-25T02:54:33;5.63;;;1.98;;
48550;SDS011;34397;51.176;6.738;2023-04-25T02:57:05;7.43;;;2.00;;
48550;SDS011;34397;51.176;6.738;2023-04-25T02:59:37;8.25;;;2.20;;
48550;SDS011;34397;51.176;6.738;2023-04-25T03:02:09;7.78;;;2.47;;
48550;SDS011;34397;51.176;6.738;2023-04-25T03:04:41;4.70;;;2.30;;
48550;SDS011;34397;51.176;6.738;2023-04-25T03:07:13;7.38;;;2.17;;
48550;SDS011;34397;51.176;6.738;2023-04-25T03:09:46;5.97;;;1.92;;
48550;SDS011;34397;51.176;6.738;2023-04-25T03:12:18;6.93;;;2.10;;
48550;SDS011;34397;51.176;6.738;2023-04-25T03:14:50;9.15;;;2.58;;
48550;SDS011;34397;51.176;6.738;2023-04-25T03:17:22;5.13;;;2.10;;
48550;SDS011;34397;51.176;6.738;2023-04-25T03:19:54;5.72;;;2.00;;
48550;SDS011;34397;51.176;6.738;2023-04-25T03:22:26;7.50;;;2.40;;
48550;SDS011;34397;51.176;6.738;2023-04-25T03:24:59;12.02;;;2.80;;
48550;SDS011;34397;51.176;6.738;2023-04-25T03:27:31;7.20;;;2.38;;
48550;SDS011;34397;51.176;6.738;2023-04-25T03:30:03;6.68;;;2.33;;
48550;SDS011;34397;51.176;6.738;2023-04-25T03:32:36;9.40;;;3.05;;
48550;SDS011;34397;51.176;6.738;2023-04-25T03:35:08;5.85;;;2.70;;
48550;SDS011;34397;51.176;6.738;2023-04-25T03:37:40;7.45;;;2.80;;
48550;SDS011;34397;51.176;6.738;2023-04-25T03:40:16;8.30;;;2.90;;
48550;SDS011;34397;51.176;6.738;2023-04-25T03:42:49;6.55;;;2.80;;
48550;SDS011;34397;51.176;6.738;2023-04-25T03:45:21;9.50;;;3.10;;
48550;SDS011;34397;51.176;6.738;2023-04-25T03:47:53;11.30;;;2.97;;
48550;SDS011;34397;51.176;6.738;2023-04-25T03:50:24;10.07;;;3.20;;
48550;SDS011;34397;51.176;6.738;2023-04-25T03:52:56;11.80;;;3.17;;
48550;SDS011;34397;51.176;6.738;2023-04-25T03:55:29;10.00;;;2.95;;
48550;SDS011;34397;51.176;6.738;2023-04-25T03:58:01;6.00;;;2.47;;
48550;SDS011;34397;51.176;6.738;2023-04-25T04:00:34;9.00;;;3.22;;
48550;SDS011;34397;51.176;6.738;2023-04-25T04:03:06;10.40;;;2.90;;
48550;SDS011;34397;51.176;6.738;2023-04-25T04:05:38;13.35;;;3.00;;
48550;SDS011;34397;51.176;6.738;2023-04-25T04:08:10;9.13;;;3.55;;
48550;SDS011;34397;51.176;6.738;2023-04-25T04:10:43;11.80;;;2.90;;
48550;SDS011;34397;51.176;6.738;2023-04-25T04:13:20;9.88;;;2.88;;
48550;SDS011;34397;51.176;6.738;2023-04-25T04:15:58;9.93;;;2.88;;
48550;SDS011;34397;51.176;6.738;2023-04-25T04:18:35;11.48;;;3.10;;
48550;SDS011;34397;51.176;6.738;2023-04-25T04:21:06;12.02;;;3.20;;
48550;SDS011;34397;51.176;6.738;2023-04-25T04:23:38;10.43;;;2.83;;
48550;SDS011;34397;51.176;6.738;2023-04-25T04:26:12;10.50;;;3.63;;
48550;SDS011;34397;51.176;6.738;2023-04-25T04:28:45;11.00;;;3.22;;
48550;SDS011;34397;51.176;6.738;2023-04-25T04:31:17;9.65;;;3.00;;
48550;SDS011;34397;51.176;6.738;2023-04-25T04:33:49;8.82;;;3.00;;
48550;SDS011;34397;51.176;6.738;2023-04-25T04:36:21;12.63;;;3.35;;
48550;SDS011;34397;51.176;6.738;2023-04-25T04:38:56;13.38;;;2.90;;
48550;SDS011;34397;51.176;6.738;2023-04-25T04:41:29;8.93;;;2.90;;
48550;SDS011;34397;51.176;6.738;2023-04-25T04:44:01;13.05;;;3.25;;
48550;SDS011;34397;51.176;6.738;2023-04-25T04:46:33;12.82;;;3.38;;
48550;SDS011;34397;51.176;6.738;2023-04-25T04:49:07;11.02;;;3.33;;
48550;SDS011;34397;51.176;6.738;2023-04-25T04:51:39;17.15;;;4.15;;
48550;SDS011;34397;51.176;6.738;2023-04-25T04:54:14;9.73;;;2.92;;
48550;SDS011;34397;51.176;6.738;2023-04-25T04:56:47;12.48;;;3.03;;
48550;SDS011;34397;51.176;6.738;2023-04-25T04:59:20;12.23;;;3.35;;
48550;SDS011;34397;51.176;6.738;2023-04-25T05:01:52;12.85;;;2.78;;
48550;SDS011;34397;51.176;6.738;2023-04-25T05:04:24;18.92;;;3.70;;
48550;SDS011;34397;51.176;6.738;2023-04-25T05:06:56;13.68;;;3.33;;
48550;SDS011;34397;51.176;6.738;2023-04-25T05:09:27;10.63;;;3.53;;
48550;SDS011;34397;51.176;6.738;2023-04-25T05:12:01;10.75;;;2.90;;
48550;SDS011;34397;51.176;6.738;2023-04-25T05:14:33;10.23;;;3.15;;
48550;SDS011;34397;51.176;6.738;2023-04-25T05:17:05;11.18;;;3.13;;
48550;SDS011;34397;51.176;6.738;2023-04-25T05:19:38;9.75;;;3.53;;
48550;SDS011;34397;51.176;6.738;2023-04-25T05:22:10;16.60;;;3.33;;
48550;SDS011;34397;51.176;6.738;2023-04-25T05:24:42;11.90;;;3.38;;
48550;SDS011;34397;51.176;6.738;2023-04-25T05:27:16;11.88;;;2.80;;
48550;SDS011;34397;51.176;6.738;2023-04-25T05:29:49;15.70;;;3.53;;
48550;SDS011;34397;51.176;6.738;2023-04-25T05:32:21;13.43;;;3.08;;
48550;SDS011;34397;51.176;6.738;2023-04-25T05:34:54;20.23;;;4.38;;
48550;SDS011;34397;51.176;6.738;2023-04-25T05:37:26;12.65;;;2.80;;
48550;SDS011;34397;51.176;6.738;2023-04-25T05:40:00;13.73;;;3.38;;
48550;SDS011;34397;51.176;6.738;2023-04-25T05:42:38;9.02;;;2.55;;
48550;SDS011;34397;51.176;6.738;2023-04-25T05:45:09;11.38;;;3.63;;
48550;SDS011;34397;51.176;6.738;2023-04-25T05:47:41;11.43;;;3.13;;
48550;SDS011;34397;51.176;6.738;2023-04-25T05:50:13;10.40;;;3.45;;
48550;SDS011;34397;51.176;6.738;2023-04-25T05:52:45;10.70;;;3.13;;
48550;SDS011;34397;51.176;6.738;2023-04-25T05:55:17;11.05;;;3.08;;
48550;SDS011;34397;51.176;6.738;2023-04-25T05:57:50;10.38;;;3.05;;
48550;SDS011;34397;51.176;6.738;2023-04-25T06:00:22;11.20;;;3.35;;
48550;SDS011;34397;51.176;6.738;2023-04-25T06:02:54;9.65;;;2.75;;
48550;SDS011;34397;51.176;6.738;2023-04-25T06:05:26;12.80;;;2.90;;
48550;SDS011;34397;51.176;6.738;2023-04-25T06:07:58;13.60;;;4.28;;
48550;SDS011;34397;51.176;6.738;2023-04-25T06:10:30;12.75;;;3.35;;
48550;SDS011;34397;51.176;6.738;2023-04-25T06:13:08;14.18;;;4.70;;
48550;SDS011;34397;51.176;6.738;2023-04-25T06:15:39;8.75;;;3.25;;
48550;SDS011;34397;51.176;6.738;2023-04-25T06:18:11;10.18;;;2.70;;
48550;SDS011;34397;51.176;6.738;2023-04-25T06:20:43;10.82;;;2.47;;
48550;SDS011;34397;51.176;6.738;2023-04-25T06:23:15;11.35;;;3.75;;
48550;SDS011;34397;51.176;6.738;2023-04-25T06:25:47;7.18;;;2.45;;
48550;SDS011;34397;51.176;6.738;2023-04-25T06:28:20;9.85;;;3.00;;
48550;SDS011;34397;51.176;6.738;2023-04-25T06:30:53;9.13;;;3.05;;
48550;SDS011;34397;51.176;6.738;2023-04-25T06:33:25;16.92;;;3.40;;
48550;SDS011;34397;51.176;6.738;2023-04-25T06:35:56;16.27;;;3.60;;
48550;SDS011;34397;51.176;6.738;2023-04-25T06:38:28;11.23;;;3.17;;
48550;SDS011;34397;51.176;6.738;2023-04-25T06:41:01;7.68;;;2.63;;
48550;SDS011;34397;51.176;6.738;2023-04-25T06:43:34;9.35;;;3.00;;
48550;SDS011;34397;51.176;6.738;2023-04-25T06:46:06;9.75;;;2.53;;
48550;SDS011;34397;51.176;6.738;2023-04-25T06:48:46;10.15;;;2.53;;
48550;SDS011;34397;51.176;6.738;2023-04-25T06:51:18;9.10;;;2.30;;
48550;SDS011;34397;51.176;6.738;2023-04-25T06:53:50;7.15;;;2.13;;
48550;SDS011;34397;51.176;6.738;2023-04-25T06:56:27;11.73;;;2.17;;
48550;SDS011;34397;51.176;6.738;2023-04-25T06:59:04;7.78;;;2.15;;
48550;SDS011;34397;51.176;6.738;2023-04-25T07:01:36;9.40;;;2.53;;
48550;SDS011;34397;51.176;6.738;2023-04-25T07:04:13;11.30;;;2.80;;
48550;SDS011;34397;51.176;6.738;2023-04-25T07:06:45;8.70;;;2.42;;
48550;SDS011;34397;51.176;6.738;2023-04-25T07:09:18;10.05;;;2.58;;
48550;SDS011;34397;51.176;6.738;2023-04-25T07:11:50;8.52;;;2.38;;
48550;SDS011;34397;51.176;6.738;2023-04-25T07:14:23;8.75;;;1.92;;
48550;SDS011;34397;51.176;6.738;2023-04-25T07:16:55;9.25;;;2.20;;
48550;SDS011;34397;51.176;6.738;2023-04-25T07:19:28;13.63;;;2.33;;
48550;SDS011;34397;51.176;6.738;2023-04-25T07:22:00;4.93;;;1.80;;
48550;SDS011;34397;51.176;6.738;2023-04-25T07:24:32;8.18;;;2.00;;
48550;SDS011;34397;51.176;6.738;2023-04-25T07:27:04;10.70;;;2.33;;
48550;SDS011;34397;51.176;6.738;2023-04-25T07:29:38;11.57;;;1.73;;
48550;SDS011;34397;51.176;6.738;2023-04-25T07:32:10;9.52;;;1.88;;
48550;SDS011;34397;51.176;6.738;2023-04-25T07:34:43;4.78;;;1.42;;
48550;SDS011;34397;51.176;6.738;2023-04-25T07:37:15;7.93;;;1.83;;
48550;SDS011;34397;51.176;6.738;2023-04-25T07:39:48;6.57;;;1.73;;
48550;SDS011;34397;51.176;6.738;2023-04-25T07:42:20;9.25;;;2.15;;
48550;SDS011;34397;51.176;6.738;2023-04-25T07:44:54;10.25;;;2.50;;
48550;SDS011;34397;51.176;6.738;2023-04-25T07:47:26;6.78;;;1.98;;
48550;SDS011;34397;51.176;6.738;2023-04-25T07:49:58;7.78;;;2.00;;
48550;SDS011;34397;51.176;6.738;2023-04-25T07:55:03;8.68;;;2.10;;
48550;SDS011;34397;51.176;6.738;2023-04-25T07:57:36;5.90;;;1.80;;
48550;SDS011;34397;51.176;6.738;2023-04-25T08:00:10;10.15;;;1.83;;
48550;SDS011;34397;51.176;6.738;2023-04-25T08:02:44;9.93;;;1.88;;
48550;SDS011;34397;51.176;6.738;2023-04-25T08:05:16;8.95;;;2.00;;
48550;SDS011;34397;51.176;6.738;2023-04-25T08:07:48;9.70;;;2.15;;
48550;SDS011;34397;51.176;6.738;2023-04-25T08:10:21;12.38;;;1.95;;
48550;SDS011;34397;51.176;6.738;2023-04-25T08:12:53;12.45;;;2.00;;
48550;SDS011;34397;51.176;6.738;2023-04-25T08:15:26;7.28;;;1.85;;
48550;SDS011;34397;51.176;6.738;2023-04-25T08:17:58;8.98;;;1.77;;
48550;SDS011;34397;51.176;6.738;2023-04-25T08:20:30;11.77;;;1.98;;
48550;SDS011;34397;51.176;6.738;2023-04-25T08:23:04;9.55;;;1.88;;
48550;SDS011;34397;51.176;6.738;2023-04-25T08:25:41;10.27;;;2.38;;
48550;SDS011;34397;51.176;6.738;2023-04-25T08:28:14;11.95;;;1.80;;
48550;SDS011;34397;51.176;6.738;2023-04-25T08:30:48;9.88;;;1.75;;
48550;SDS011;34397;51.176;6.738;2023-04-25T08:33:20;8.57;;;1.83;;
48550;SDS011;34397;51.176;6.738;2023-04-25T08:35:51;7.38;;;2.20;;
48550;SDS011;34397;51.176;6.738;2023-04-25T08:38:23;6.47;;;1.40;;
48550;SDS011;34397;51.176;6.738;2023-04-25T08:40:56;7.10;;;2.05;;
48550;SDS011;34397;51.176;6.738;2023-04-25T08:43:31;8.02;;;1.65;;
48550;SDS011;34397;51.176;6.738;2023-04-25T08:46:04;4.65;;;1.05;;
48550;SDS011;34397;51.176;6.738;2023-04-25T08:48:37;5.60;;;1.42;;
48550;SDS011;34397;51.176;6.738;2023-04-25T08:51:14;4.85;;;1.23;;
48550;SDS011;34397;51.176;6.738;2023-04-25T08:53:52;6.97;;;1.65;;
48550;SDS011;34397;51.176;6.738;2023-04-25T08:56:25;6.90;;;1.30;;
48550;SDS011;34397;51.176;6.738;2023-04-25T08:58:57;5.05;;;1.20;;
48550;SDS011;34397;51.176;6.738;2023-04-25T09:01:32;6.63;;;1.13;;
48550;SDS011;34397;51.176;6.738;2023-04-25T09:04:06;6.85;;;1.23;;
48550;SDS011;34397;51.176;6.738;2023-04-25T09:06:39;5.07;;;1.40;;
48550;SDS011;34397;51.176;6.738;2023-04-25T09:09:12;4.20;;;1.00;;
48550;SDS011;34397;51.176;6.738;2023-04-25T09:11:44;4.75;;;1.05;;
48550;SDS011;34397;51.176;6.738;2023-04-25T09:14:18;4.10;;;1.20;;
48550;SDS011;34397;51.176;6.738;2023-04-25T09:17:00;5.72;;;1.40;;
48550;SDS011;34397;51.176;6.738;2023-04-25T09:19:35;4.40;;;1.10;;
48550;SDS011;34397;51.176;6.738;2023-04-25T09:22:09;3.95;;;0.90;;
48550;SDS011;34397;51.176;6.738;2023-04-25T09:24:42;9.60;;;1.40;;
48550;SDS011;34397;51.176;6.738;2023-04-25T09:27:18;5.50;;;1.27;;
48550;SDS011;34397;51.176;6.738;2023-04-25T09:29:56;5.07;;;1.40;;
48550;SDS011;34397;51.176;6.738;2023-04-25T09:32:31;10.32;;;1.40;;
48550;SDS011;34397;51.176;6.738;2023-04-25T09:35:05;4.60;;;1.08;;
48550;SDS011;34397;51.176;6.738;2023-04-25T09:37:38;7.57;;;1.40;;
48550;SDS011;34397;51.176;6.738;2023-04-25T09:40:11;7.78;;;2.75;;
48550;SDS011;34397;51.176;6.738;2023-04-25T09:42:43;8.60;;;1.35;;
48550;SDS011;34397;51.176;6.738;2023-04-25T09:45:15;4.90;;;1.20;;
48550;SDS011;34397;51.176;6.738;2023-04-25T09:47:48;4.05;;;1.23;;
48550;SDS011;34397;51.176;6.738;2023-04-25T09:50:21;7.00;;;1.35;;
48550;SDS011;34397;51.176;6.738;2023-04-25T09:53:02;4.78;;;1.33;;
48550;SDS011;34397;51.176;6.738;2023-04-25T09:55:35;7.10;;;1.17;;
48550;SDS011;34397;51.176;6.738;2023-04-25T09:58:07;4.60;;;1.10;;
48550;SDS011;34397;51.176;6.738;2023-04-25T10:00:41;6.00;;;1.02;;
48550;SDS011;34397;51.176;6.738;2023-04-25T10:03:14;3.47;;;0.90;;
48550;SDS011;34397;51.176;6.738;2023-04-25T10:05:48;5.35;;;1.10;;
48550;SDS011;34397;51.176;6.738;2023-04-25T10:08:22;4.50;;;1.10;;
48550;SDS011;34397;51.176;6.738;2023-04-25T10:10:56;4.50;;;1.10;;
48550;SDS011;34397;51.176;6.738;2023-04-25T10:13:31;5.38;;;1.20;;
48550;SDS011;34397;51.176;6.738;2023-04-25T10:16:04;3.47;;;1.20;;
48550;SDS011;34397;51.176;6.738;2023-04-25T10:18:37;3.45;;;0.88;;
48550;SDS011;34397;51.176;6.738;2023-04-25T10:21:09;8.63;;;1.35;;
48550;SDS011;34397;51.176;6.738;2023-04-25T10:23:42;4.55;;;0.85;;
48550;SDS011;34397;51.176;6.738;2023-04-25T10:26:15;4.68;;;1.10;;
48550;SDS011;34397;51.176;6.738;2023-04-25T10:28:57;6.72;;;1.02;;
48550;SDS011;34397;51.176;6.738;2023-04-25T10:31:44;3.00;;;1.00;;
48550;SDS011;34397;51.176;6.738;2023-04-25T10:34:19;4.88;;;1.15;;
48550;SDS011;34397;51.176;6.738;2023-04-25T10:36:56;3.35;;;0.77;;
48550;SDS011;34397;51.176;6.738;2023-04-25T10:39:33;6.03;;;1.10;;
48550;SDS011;34397;51.176;6.738;2023-04-25T10:42:05;3.08;;;1.00;;
48550;SDS011;34397;51.176;6.738;2023-04-25T10:47:10;3.15;;;1.00;;
48550;SDS011;34397;51.176;6.738;2023-04-25T10:49:43;4.53;;;1.02;;
48550;SDS011;34397;51.176;6.738;2023-04-25T10:52:16;6.97;;;0.90;;
48550;SDS011;34397;51.176;6.738;2023-04-25T10:54:51;5.28;;;1.02;;
48550;SDS011;34397;51.176;6.738;2023-04-25T10:57:30;4.03;;;1.20;;
48550;SDS011;34397;51.176;6.738;2023-04-25T11:00:11;2.10;;;0.90;;
48550;SDS011;34397;51.176;6.738;2023-04-25T11:02:47;2.85;;;0.80;;
48550;SDS011;34397;51.176;6.738;2023-04-25T11:05:26;4.47;;;0.85;;
48550;SDS011;34397;51.176;6.738;2023-04-25T11:08:03;4.20;;;1.15;;
48550;SDS011;34397;51.176;6.738;2023-04-25T11:10:44;4.93;;;0.88;;
48550;SDS011;34397;51.176;6.738;2023-04-25T11:13:19;6.32;;;0.95;;
48550;SDS011;34397;51.176;6.738;2023-04-25T11:15:56;2.35;;;0.90;;
48550;SDS011;34397;51.176;6.738;2023-04-25T11:18:28;3.08;;;1.00;;
48550;SDS011;34397;51.176;6.738;2023-04-25T11:21:01;2.00;;;0.80;;
48550;SDS011;34397;51.176;6.738;2023-04-25T11:23:34;2.55;;;0.85;;
48550;SDS011;34397;51.176;6.738;2023-04-25T11:26:06;5.22;;;1.23;;
48550;SDS011;34397;51.176;6.738;2023-04-25T11:28:38;3.20;;;1.10;;
48550;SDS011;34397;51.176;6.738;2023-04-25T11:31:10;2.83;;;0.80;;
48550;SDS011;34397;51.176;6.738;2023-04-25T11:33:42;4.15;;;1.00;;
48550;SDS011;34397;51.176;6.738;2023-04-25T11:36:16;2.50;;;1.00;;
48550;SDS011;34397;51.176;6.738;2023-04-25T11:38:49;2.70;;;0.95;;
48550;SDS011;34397;51.176;6.738;2023-04-25T11:41:21;2.55;;;0.93;;
48550;SDS011;34397;51.176;6.738;2023-04-25T11:43:53;7.93;;;1.73;;
48550;SDS011;34397;51.176;6.738;2023-04-25T11:46:26;5.25;;;1.25;;
48550;SDS011;34397;51.176;6.738;2023-04-25T11:48:58;3.67;;;0.95;;
48550;SDS011;34397;51.176;6.738;2023-04-25T11:51:31;3.53;;;1.10;;
48550;SDS011;34397;51.176;6.738;2023-04-25T11:54:11;2.97;;;0.85;;
48550;SDS011;34397;51.176;6.738;2023-04-25T11:56:45;5.25;;;1.05;;
48550;SDS011;34397;51.176;6.738;2023-04-25T11:59:18;3.88;;;1.10;;
48550;SDS011;34397;51.176;6.738;2023-04-25T12:01:58;5.50;;;1.10;;
48550;SDS011;34397;51.176;6.738;2023-04-25T12:04:33;6.55;;;1.00;;
48550;SDS011;34397;51.176;6.738;2023-04-25T12:07:09;5.18;;;1.25;;
48550;SDS011;34397;51.176;6.738;2023-04-25T12:09:43;4.35;;;1.00;;
48550;SDS011;34397;51.176;6.738;2023-04-25T12:12:26;4.43;;;1.00;;
48550;SDS011;34397;51.176;6.738;2023-04-25T12:15:07;3.97;;;1.02;;
48550;SDS011;34397;51.176;6.738;2023-04-25T12:17:42;3.17;;;0.93;;
48550;SDS011;34397;51.176;6.738;2023-04-25T12:20:16;2.75;;;0.90;;
48550;SDS011;34397;51.176;6.738;2023-04-25T12:22:56;3.25;;;1.20;;
48550;SDS011;34397;51.176;6.738;2023-04-25T12:25:35;6.60;;;1.15;;
48550;SDS011;34397;51.176;6.738;2023-04-25T12:28:11;3.80;;;1.13;;
48550;SDS011;34397;51.176;6.738;2023-04-25T12:30:54;2.25;;;0.73;;
48550;SDS011;34397;51.176;6.738;2023-04-25T12:33:29;4.00;;;1.00;;
48550;SDS011;34397;51.176;6.738;2023-04-25T12:36:03;5.95;;;1.08;;
48550;SDS011;34397;51.176;6.738;2023-04-25T12:38:41;4.75;;;1.23;;
48550;SDS011;34397;51.176;6.738;2023-04-25T12:41:13;3.28;;;0.90;;
48550;SDS011;34397;51.176;6.738;2023-04-25T12:43:45;3.80;;;0.90;;
48550;SDS011;34397;51.176;6.738;2023-04-25T12:46:17;4.43;;;0.98;;
48550;SDS011;34397;51.176;6.738;2023-04-25T12:48:48;5.72;;;1.45;;
48550;SDS011;34397;51.176;6.738;2023-04-25T12:51:20;6.18;;;1.55;;
48550;SDS011;34397;51.176;6.738;2023-04-25T12:53:56;5.18;;;1.30;;
48550;SDS011;34397;51.176;6.738;2023-04-25T12:56:28;4.20;;;1.17;;
48550;SDS011;34397;51.176;6.738;2023-04-25T12:59:00;6.38;;;1.50;;
48550;SDS011;34397;51.176;6.738;2023-04-25T13:01:32;4.63;;;1.40;;
48550;SDS011;34397;51.176;6.738;2023-04-25T13:04:04;3.00;;;1.05;;
48550;SDS011;34397;51.176;6.738;2023-04-25T13:06:36;3.28;;;1.35;;
48550;SDS011;34397;51.176;6.738;2023-04-25T13:09:09;3.58;;;1.52;;
48550;SDS011;34397;51.176;6.738;2023-04-25T13:11:42;3.95;;;1.27;;
48550;SDS011;34397;51.176;6.738;2023-04-25T13:14:14;3.85;;;1.27;;
48550;SDS011;34397;51.176;6.738;2023-04-25T13:16:46;2.60;;;1.00;;
48550;SDS011;34397;51.176;6.738;2023-04-25T13:19:18;3.38;;;1.17;;
48550;SDS011;34397;51.176;6.738;2023-04-25T13:21:50;3.10;;;1.40;;
48550;SDS011;34397;51.176;6.738;2023-04-25T13:24:23;4.47;;;1.08;;
48550;SDS011;34397;51.176;6.738;2023-04-25T13:26:55;2.58;;;1.00;;
48550;SDS011;34397;51.176;6.738;2023-04-25T13:29:27;2.80;;;1.00;;
48550;SDS011;34397;51.176;6.738;2023-04-25T13:31:59;2.97;;;0.80;;
48550;SDS011;34397;51.176;6.738;2023-04-25T13:34:31;2.97;;;1.00;;
48550;SDS011;34397;51.176;6.738;2023-04-25T13:37:03;3.78;;;0.98;;
48550;SDS011;34397;51.176;6.738;2023-04-25T13:39:37;3.97;;;0.80;;
48550;SDS011;34397;51.176;6.738;2023-04-25T13:42:09;4.03;;;0.50;;
48550;SDS011;34397;51.176;6.738;2023-04-25T13:44:41;3.20;;;0.90;;
48550;SDS011;34397;51.176;6.738;2023-04-25T13:47:13;2.97;;;0.52;;
48550;SDS011;34397;51.176;6.738;2023-04-25T13:49:45;1.55;;;0.70;;
48550;SDS011;34397;51.176;6.738;2023-04-25T13:52:17;1.88;;;0.50;;
48550;SDS011;34397;51.176;6.738;2023-04-25T13:54:50;2.08;;;0.60;;
48550;SDS011;34397;51.176;6.738;2023-04-25T13:57:22;1.65;;;0.55;;
48550;SDS011;34397;51.176;6.738;2023-04-25T13:59:55;3.22;;;0.60;;
48550;SDS011;34397;51.176;6.738;2023-04-25T14:02:27;3.05;;;0.70;;
48550;SDS011;34397;51.176;6.738;2023-04-25T14:04:59;1.77;;;0.55;;
48550;SDS011;34397;51.176;6.738;2023-04-25T14:07:31;1.75;;;0.60;;
48550;SDS011;34397;51.176;6.738;2023-04-25T14:10:04;3.20;;;0.77;;
48550;SDS011;34397;51.176;6.738;2023-04-25T14:12:37;3.53;;;0.70;;
48550;SDS011;34397;51.176;6.738;2023-04-25T14:15:10;3.65;;;0.80;;
48550;SDS011;34397;51.176;6.738;2023-04-25T14:17:42;3.03;;;1.00;;
48550;SDS011;34397;51.176;6.738;2023-04-25T14:20:15;4.20;;;1.02;;
48550;SDS011;34397;51.176;6.738;2023-04-25T14:22:50;3.47;;;1.20;;
48550;SDS011;34397;51.176;6.738;2023-04-25T14:25:25;4.10;;;0.90;;
48550;SDS011;34397;51.176;6.738;2023-04-25T14:27:57;3.25;;;0.95;;
48550;SDS011;34397;51.176;6.738;2023-04-25T14:30:29;3.38;;;0.77;;
48550;SDS011;34397;51.176;6.738;2023-04-25T14:33:01;3.83;;;1.30;;
48550;SDS011;34397;51.176;6.738;2023-04-25T14:35:33;5.20;;;1.27;;
48550;SDS011;34397;51.176;6.738;2023-04-25T14:38:05;2.45;;;0.85;;
48550;SDS011;34397;51.176;6.738;2023-04-25T14:40:39;3.38;;;1.10;;
48550;SDS011;34397;51.176;6.738;2023-04-25T14:43:10;4.70;;;1.02;;
48550;SDS011;34397;51.176;6.738;2023-04-25T14:45:42;2.33;;;0.80;;
48550;SDS011;34397;51.176;6.738;2023-04-25T14:48:14;4.18;;;1.20;;
48550;SDS011;34397;51.176;6.738;2023-04-25T14:50:48;2.67;;;0.80;;
48550;SDS011;34397;51.176;6.738;2023-04-25T14:53:20;3.10;;;0.88;;
48550;SDS011;34397;51.176;6.738;2023-04-25T14:55:53;3.53;;;1.00;;
48550;SDS011;34397;51.176;6.738;2023-04-25T14:58:25;2.65;;;0.90;;
48550;SDS011;34397;51.176;6.738;2023-04-25T15:00:57;2.00;;;0.93;;
48550;SDS011;34397;51.176;6.738;2023-04-25T15:03:29;2.85;;;1.15;;
48550;SDS011;34397;51.176;6.738;2023-04-25T15:06:01;3.70;;;0.80;;
48550;SDS011;34397;51.176;6.738;2023-04-25T15:08:33;4.55;;;0.80;;
48550;SDS011;34397;51.176;6.738;2023-04-25T15:11:07;2.60;;;0.85;;
48550;SDS011;34397;51.176;6.738;2023-04-25T15:13:40;2.80;;;1.05;;
48550;SDS011;34397;51.176;6.738;2023-04-25T15:16:12;2.70;;;0.70;;
48550;SDS011;34397;51.176;6.738;2023-04-25T15:18:44;2.63;;;0.77;;
48550;SDS011;34397;51.176;6.738;2023-04-25T15:21:16;3.50;;;0.95;;
48550;SDS011;34397;51.176;6.738;2023-04-25T15:23:48;2.75;;;0.70;;